createdAt,value
2023-03-05T00:01:40.577Z,100367.22
2023-03-05T00:04:13.945Z,100366.38
2023-03-05T00:06:42.776Z,100375.91
2023-03-05T00:09:11.548Z,100375.91
2023-03-05T00:11:40.331Z,100381.34
2023-03-05T00:14:08.654Z,100374.25
2023-03-05T00:16:37.014Z,100374.25
2023-03-05T00:19:06.547Z,100367.38
2023-03-05T00:21:38.716Z,100362.13
2023-03-05T00:24:09.903Z,100371.84
2023-03-05T00:26:40.220Z,100357.09
2023-03-05T00:29:10.017Z,100357.88
2023-03-05T00:31:39.082Z,100356.06
2023-03-05T00:34:10.850Z,100355.25
2023-03-05T00:36:43.348Z,100349.19
2023-03-05T00:39:12.347Z,100346.56
2023-03-05T00:41:40.906Z,100351.81
2023-03-05T00:44:09.625Z,100346.56
2023-03-05T00:46:38.694Z,100345.75
2023-03-05T00:49:07.427Z,100352.81
2023-03-05T00:51:35.774Z,100346.75
2023-03-05T00:54:06.227Z,100338.84
2023-03-05T00:56:34.677Z,100328.72
2023-03-05T00:59:03.109Z,100333.00
2023-03-05T01:01:31.529Z,100333.00
2023-03-05T01:04:01.257Z,100330.53
2023-03-05T01:06:30.478Z,100322.66
2023-03-05T01:08:59.558Z,100322.66
2023-03-05T01:11:29.315Z,100320.84
2023-03-05T01:13:57.803Z,100325.28
2023-03-05T01:16:26.241Z,100319.22
2023-03-05T01:18:54.789Z,100315.59
2023-03-05T01:21:23.218Z,100315.59
2023-03-05T01:23:51.543Z,100312.97
2023-03-05T01:26:19.896Z,100309.72
2023-03-05T01:28:49.691Z,100311.34
2023-03-05T01:31:18.183Z,100306.28
2023-03-05T01:33:46.563Z,100300.22
2023-03-05T01:36:17.099Z,100304.47
2023-03-05T01:38:47.849Z,100297.59
2023-03-05T01:41:17.604Z,100295.78
2023-03-05T01:43:53.209Z,100292.50
2023-03-05T01:46:28.419Z,100294.16
2023-03-05T01:49:04.915Z,100288.91
2023-03-05T01:51:37.275Z,100275.94
2023-03-05T01:54:07.545Z,100289.88
2023-03-05T01:56:36.798Z,100288.06
2023-03-05T01:59:07.240Z,100291.72
2023-03-05T02:01:41.083Z,100290.69
2023-03-05T02:04:11.338Z,100279.38
2023-03-05T02:06:42.417Z,100286.44
2023-03-05T02:09:11.248Z,100282.81
2023-03-05T02:11:40.100Z,100288.91
2023-03-05T02:14:11.103Z,100275.13
2023-03-05T02:16:40.343Z,100277.56
2023-03-05T02:19:12.502Z,100274.31
2023-03-05T02:21:45.715Z,100270.69
2023-03-05T02:24:15.405Z,100267.44
2023-03-05T02:26:44.872Z,100264.81
2023-03-05T02:29:19.611Z,100271.88
2023-03-05T02:31:48.056Z,100264.19
2023-03-05T02:34:16.537Z,100257.13
2023-03-05T02:36:46.777Z,100263.38
2023-03-05T02:39:16.177Z,100253.88
2023-03-05T02:41:44.869Z,100255.69
2023-03-05T02:44:13.595Z,100250.41
2023-03-05T02:46:42.114Z,100258.31
2023-03-05T02:49:10.552Z,100244.72
2023-03-05T02:51:38.941Z,100244.56
2023-03-05T02:54:09.667Z,100252.44
2023-03-05T02:56:39.661Z,100248.81
2023-03-05T02:59:08.371Z,100239.09
2023-03-05T03:01:36.830Z,100236.47
2023-03-05T03:04:06.680Z,100230.41
2023-03-05T03:06:35.108Z,100241.72
2023-03-05T03:09:03.513Z,100234.66
2023-03-05T03:11:33.254Z,100220.91
2023-03-05T03:14:01.920Z,100230.41
2023-03-05T03:16:30.480Z,100227.78
2023-03-05T03:18:58.840Z,100220.72
2023-03-05T03:21:28.061Z,100219.09
2023-03-05T03:23:56.409Z,100218.28
2023-03-05T03:26:24.795Z,100213.03
2023-03-05T03:28:55.437Z,100219.91
2023-03-05T03:31:23.853Z,100217.66
2023-03-05T03:33:52.689Z,100210.59
2023-03-05T03:36:21.005Z,100217.66
2023-03-05T03:38:49.337Z,100202.69
2023-03-05T03:41:18.905Z,100207.97
2023-03-05T03:43:47.284Z,100204.53
2023-03-05T03:46:17.008Z,100202.91
2023-03-05T03:48:45.393Z,100201.91
2023-03-05T03:51:13.716Z,100200.28
2023-03-05T03:53:42.044Z,100200.28
2023-03-05T03:56:10.427Z,100201.09
2023-03-05T03:58:38.776Z,100193.41
2023-03-05T04:01:07.213Z,100193.41
2023-03-05T04:03:37.012Z,100191.75
2023-03-05T04:06:06.114Z,100197.03
2023-03-05T04:08:34.588Z,100185.72
2023-03-05T04:11:03.859Z,100175.19
2023-03-05T04:13:32.269Z,100182.09
2023-03-05T04:16:00.753Z,100181.25
2023-03-05T04:18:30.191Z,100170.75
2023-03-05T04:21:00.995Z,100166.34
2023-03-05T04:23:29.308Z,100161.09
2023-03-05T04:25:57.699Z,100164.69
2023-03-05T04:28:26.256Z,100171.59
2023-03-05T04:30:54.750Z,100157.81
2023-03-05T04:33:23.095Z,100160.25
2023-03-05T04:35:51.608Z,100161.25
2023-03-05T04:38:21.323Z,100163.06
2023-03-05T04:40:49.672Z,100159.66
2023-03-05T04:43:20.619Z,100151.75
2023-03-05T04:45:48.979Z,100156.22
2023-03-05T04:48:20.474Z,100163.28
2023-03-05T04:50:55.330Z,100153.97
2023-03-05T04:53:25.186Z,100159.00
2023-03-05T04:55:56.763Z,100162.44
2023-03-05T04:58:25.307Z,100159.81
2023-03-05T05:00:53.660Z,100160.66
2023-03-05T05:03:26.484Z,100165.91
2023-03-05T05:05:59.795Z,100156.38
2023-03-05T05:08:30.480Z,100165.91
2023-03-05T05:11:01.704Z,100161.63
2023-03-05T05:13:38.516Z,100159.00
2023-03-05T05:16:11.540Z,100161.03
2023-03-05T05:18:53.292Z,100159.66
2023-03-05T05:21:21.736Z,100153.75
2023-03-05T05:23:52.825Z,100149.50
2023-03-05T05:26:21.165Z,100143.44
2023-03-05T05:28:49.475Z,100151.13
2023-03-05T05:31:18.683Z,100161.84
2023-03-05T05:33:49.696Z,100157.41
2023-03-05T05:36:22.510Z,100149.72
2023-03-05T05:38:52.305Z,100155.78
2023-03-05T05:41:25.830Z,100155.78
2023-03-05T05:43:54.243Z,100156.75
2023-03-05T05:46:35.188Z,100147.28
2023-03-05T05:49:03.729Z,100144.84
2023-03-05T05:51:32.171Z,100145.44
2023-03-05T05:54:07.283Z,100149.09
2023-03-05T05:56:40.088Z,100147.28
2023-03-05T05:59:09.874Z,100143.84
2023-03-05T06:01:40.216Z,100139.59
2023-03-05T06:04:08.655Z,100136.75
2023-03-05T06:06:37.002Z,100133.34
2023-03-05T06:09:06.849Z,100128.88
2023-03-05T06:11:36.684Z,100137.78
2023-03-05T06:14:05.380Z,100136.97
2023-03-05T06:16:33.837Z,100140.41
2023-03-05T06:19:04.504Z,100138.59
2023-03-05T06:21:37.974Z,100140.41
2023-03-05T06:24:08.875Z,100139.59
2023-03-05T06:26:37.477Z,100141.22
2023-03-05T06:29:06.206Z,100145.66
2023-03-05T06:31:37.135Z,100139.59
2023-03-05T06:34:05.758Z,100148.28
2023-03-05T06:36:34.088Z,100144.03
2023-03-05T06:39:03.622Z,100144.84
2023-03-05T06:41:34.380Z,100142.22
2023-03-05T06:44:04.151Z,100144.84
2023-03-05T06:46:34.584Z,100141.41
2023-03-05T06:49:05.251Z,100134.34
2023-03-05T06:51:36.513Z,100136.97
2023-03-05T06:54:07.817Z,100132.53
2023-03-05T06:56:40.667Z,100127.28
2023-03-05T06:59:10.082Z,100136.16
2023-03-05T07:01:38.542Z,100135.31
2023-03-05T07:04:13.003Z,100139.97
2023-03-05T07:06:43.191Z,100133.53
2023-03-05T07:09:15.856Z,100121.38
2023-03-05T07:11:45.608Z,100138.78
2023-03-05T07:14:14.002Z,100138.59
2023-03-05T07:16:42.420Z,100135.16
2023-03-05T07:19:12.282Z,100132.53
2023-03-05T07:21:41.107Z,100125.44
2023-03-05T07:24:10.158Z,100126.25
2023-03-05T07:26:38.552Z,100125.25
2023-03-05T07:29:08.302Z,100126.88
2023-03-05T07:31:36.983Z,100114.56
2023-03-05T07:34:06.556Z,100120.63
2023-03-05T07:36:35.379Z,100124.88
2023-03-05T07:39:04.997Z,100128.28
2023-03-05T07:41:33.476Z,100123.88
2023-03-05T07:44:01.881Z,100116.19
2023-03-05T07:46:34.915Z,100123.88
2023-03-05T07:49:03.377Z,100124.47
2023-03-05T07:51:32.322Z,100118.22
2023-03-05T07:54:02.017Z,100126.94
2023-03-05T07:56:32.266Z,100125.13
2023-03-05T07:59:01.377Z,100123.28
2023-03-05T08:01:32.021Z,100120.47
2023-03-05T08:04:00.510Z,100120.47
2023-03-05T08:06:29.286Z,100117.84
2023-03-05T08:08:59.289Z,100113.38
2023-03-05T08:11:28.532Z,100113.38
2023-03-05T08:13:59.332Z,100122.69
2023-03-05T08:16:28.065Z,100116.44
2023-03-05T08:18:59.626Z,100123.34
2023-03-05T08:21:31.117Z,100115.47
2023-03-05T08:24:00.701Z,100115.25
2023-03-05T08:26:31.907Z,100113.44
2023-03-05T08:29:00.432Z,100118.69
2023-03-05T08:31:30.310Z,100119.50
2023-03-05T08:34:01.813Z,100114.06
2023-03-05T08:36:30.628Z,100105.16
2023-03-05T08:38:59.719Z,100117.09
2023-03-05T08:41:28.590Z,100103.97
2023-03-05T08:43:57.025Z,100103.38
2023-03-05T08:46:25.838Z,100104.00
2023-03-05T08:49:00.140Z,100106.63
2023-03-05T08:51:28.719Z,100098.34
2023-03-05T08:54:06.841Z,100111.09
2023-03-05T08:56:38.043Z,100107.66
2023-03-05T08:59:06.984Z,100099.59
2023-03-05T09:01:35.408Z,100098.38
2023-03-05T09:04:07.154Z,100109.31
2023-03-05T09:06:39.328Z,100103.88
2023-03-05T09:09:10.631Z,100107.91
2023-03-05T09:11:39.190Z,100104.28
2023-03-05T09:14:08.524Z,100098.66
2023-03-05T09:16:38.534Z,100098.44
2023-03-05T09:19:10.677Z,100100.03
2023-03-05T09:21:42.898Z,100094.38
2023-03-05T09:24:11.883Z,100088.13
2023-03-05T09:26:41.094Z,100098.66
2023-03-05T09:29:09.686Z,100094.59
2023-03-05T09:31:43.328Z,100094.38
2023-03-05T09:34:13.612Z,100085.09
2023-03-05T09:36:41.932Z,100081.25
2023-03-05T09:39:10.242Z,100086.13
2023-03-05T09:42:00.926Z,100086.72
2023-03-05T09:44:39.033Z,100076.03
2023-03-05T09:47:29.627Z,100081.88
2023-03-05T09:50:04.405Z,100083.94
2023-03-05T09:52:40.122Z,100071.38
2023-03-05T09:55:15.730Z,100081.72
2023-03-05T09:57:50.169Z,100071.22
2023-03-05T10:00:32.136Z,100072.81
2023-03-05T10:03:07.017Z,100068.19
2023-03-05T10:05:57.998Z,100062.72
2023-03-05T10:08:34.515Z,100060.09
2023-03-05T10:11:06.647Z,100064.31
2023-03-05T10:13:39.699Z,100053.00
2023-03-05T10:16:54.889Z,100060.72
2023-03-05T10:20:04.046Z,100034.81
2023-03-05T10:22:44.134Z,100043.13
2023-03-05T10:25:22.125Z,100031.75
2023-03-05T10:27:54.415Z,100028.56
2023-03-05T10:30:41.922Z,100027.31
2023-03-05T10:33:21.640Z,100022.69
2023-03-05T10:36:45.018Z,100030.19
2023-03-05T10:39:43.839Z,100021.94
2023-03-05T10:42:26.752Z,100014.84
2023-03-05T10:44:58.265Z,100008.16
2023-03-05T10:47:33.989Z,100009.97
2023-03-05T10:50:02.400Z,100010.38
2023-03-05T10:52:36.438Z,100011.59
2023-03-05T10:55:16.684Z,100010.59
2023-03-05T10:57:45.740Z,100009.78
2023-03-05T11:00:21.674Z,100007.34
2023-03-05T11:03:00.914Z,99996.81
2023-03-05T11:05:44.734Z,99998.63
2023-03-05T11:08:40.576Z,99994.81
2023-03-05T11:11:22.583Z,99991.38
2023-03-05T11:13:57.976Z,99988.31
2023-03-05T11:16:28.415Z,99983.88
2023-03-05T11:19:21.294Z,99970.91
2023-03-05T11:22:10.901Z,99975.34
2023-03-05T11:24:41.103Z,99969.47
2023-03-05T11:27:28.065Z,99965.06
2023-03-05T11:29:56.489Z,99961.97
2023-03-05T11:32:28.403Z,99958.13
2023-03-05T11:34:59.600Z,99958.34
2023-03-05T11:37:30.537Z,99951.44
2023-03-05T11:40:21.587Z,99945.38
2023-03-05T11:42:58.064Z,99948.22
2023-03-05T11:45:28.347Z,99946.78
2023-03-05T11:48:01.891Z,99942.91
2023-03-05T11:50:33.093Z,99944.34
2023-03-05T11:53:07.450Z,99940.69
2023-03-05T11:55:41.916Z,99947.78
2023-03-05T11:58:29.682Z,99933.81
2023-03-05T12:00:58.698Z,99932.16
2023-03-05T12:03:31.846Z,99914.34
2023-03-05T12:06:08.453Z,99921.81
2023-03-05T12:08:42.850Z,99918.97
2023-03-05T12:11:19.552Z,99913.31
2023-03-05T12:13:53.953Z,99906.03
2023-03-05T12:16:34.847Z,99903.38
2023-03-05T12:19:30.690Z,99899.16
2023-03-05T12:21:59.962Z,99903.38
2023-03-05T12:24:40.720Z,99892.63
2023-03-05T12:27:16.170Z,99889.00
2023-03-05T12:29:49.317Z,99884.72
2023-03-05T12:33:03.621Z,99885.97
2023-03-05T12:35:39.611Z,99887.78
2023-03-05T12:38:33.151Z,99880.09
2023-03-05T12:41:44.528Z,99880.31
2023-03-05T12:44:24.646Z,99874.03
2023-03-05T12:47:23.420Z,99870.59
2023-03-05T12:49:51.915Z,99869.56
2023-03-05T12:52:31.202Z,99866.13
2023-03-05T12:55:21.357Z,99870.78
2023-03-05T12:57:58.790Z,99867.34
2023-03-05T13:00:33.714Z,99861.06
2023-03-05T13:03:10.802Z,99867.97
2023-03-05T13:05:40.340Z,99850.75
2023-03-05T13:08:23.239Z,99845.47
2023-03-05T13:10:57.083Z,99852.59
2023-03-05T13:13:28.321Z,99850.75
2023-03-05T13:15:58.103Z,99843.66
2023-03-05T13:18:31.035Z,99834.72
2023-03-05T13:21:05.597Z,99848.91
2023-03-05T13:23:36.459Z,99836.97
2023-03-05T13:26:15.277Z,99843.47
2023-03-05T13:28:45.097Z,99847.50
2023-03-05T13:31:21.328Z,99835.78
2023-03-05T13:33:57.583Z,99836.41
2023-03-05T13:36:28.015Z,99838.47
2023-03-05T13:38:56.792Z,99829.16
2023-03-05T13:41:29.176Z,99829.16
2023-03-05T13:44:00.348Z,99826.72
2023-03-05T13:46:32.505Z,99820.25
2023-03-05T13:49:22.459Z,99823.09
2023-03-05T13:51:53.396Z,99818.88
2023-03-05T13:54:24.274Z,99814.41
2023-03-05T13:56:56.609Z,99810.13
2023-03-05T13:59:28.324Z,99815.00
2023-03-05T14:01:58.055Z,99804.03
2023-03-05T14:04:30.638Z,99804.03
2023-03-05T14:07:03.509Z,99811.94
2023-03-05T14:09:45.876Z,99798.78
2023-03-05T14:12:30.326Z,99788.66
2023-03-05T14:14:59.934Z,99789.69
2023-03-05T14:17:41.899Z,99786.66
2023-03-05T14:20:25.855Z,99784.22
2023-03-05T14:22:57.928Z,99788.25
2023-03-05T14:25:39.776Z,99771.66
2023-03-05T14:28:24.600Z,99784.19
2023-03-05T14:30:55.837Z,99767.41
2023-03-05T14:33:26.210Z,99765.56
2023-03-05T14:35:57.797Z,99770.41
2023-03-05T14:38:31.956Z,99766.75
2023-03-05T14:41:00.462Z,99757.03
2023-03-05T14:43:28.834Z,99756.22
2023-03-05T14:45:57.288Z,99744.44
2023-03-05T14:48:25.692Z,99742.44
2023-03-05T14:50:57.411Z,99742.66
2023-03-05T14:53:29.254Z,99740.00
2023-03-05T14:55:58.485Z,99739.19
2023-03-05T14:58:32.276Z,99730.69
2023-03-05T15:01:00.974Z,99720.97
2023-03-05T15:03:29.541Z,99712.84
2023-03-05T15:06:00.418Z,99713.06
2023-03-05T15:08:31.918Z,99709.41
2023-03-05T15:11:01.598Z,99700.53
2023-03-05T15:13:30.052Z,99690.78
2023-03-05T15:15:58.589Z,99682.09
2023-03-05T15:18:26.977Z,99685.53
2023-03-05T15:20:56.940Z,99683.69
2023-03-05T15:23:29.034Z,99688.97
2023-03-05T15:25:57.506Z,99681.06
2023-03-05T15:28:25.873Z,99677.84
2023-03-05T15:30:54.786Z,99680.03
2023-03-05T15:33:23.593Z,99677.84
2023-03-05T15:35:52.213Z,99675.19
2023-03-05T15:38:20.645Z,99677.63
2023-03-05T15:40:51.691Z,99658.59
2023-03-05T15:43:21.248Z,99650.13
2023-03-05T15:45:49.662Z,99657.56
2023-03-05T15:48:18.085Z,99650.94
2023-03-05T15:50:46.469Z,99657.00
2023-03-05T15:53:18.014Z,99648.50
2023-03-05T15:55:47.239Z,99648.50
2023-03-05T15:58:18.607Z,99643.69
2023-03-05T16:00:51.034Z,99645.47
2023-03-05T16:03:22.652Z,99640.22
2023-03-05T16:05:51.257Z,99640.03
2023-03-05T16:08:19.736Z,99641.84
2023-03-05T16:10:48.712Z,99632.13
2023-03-05T16:13:21.721Z,99629.50
2023-03-05T16:15:53.099Z,99616.34
2023-03-05T16:18:22.591Z,99614.72
2023-03-05T16:20:57.105Z,99608.44
2023-03-05T16:23:25.685Z,99608.44
2023-03-05T16:25:54.315Z,99606.59
2023-03-05T16:28:24.343Z,99604.41
2023-03-05T16:30:57.274Z,99603.16
2023-03-05T16:33:26.087Z,99602.78
2023-03-05T16:36:22.937Z,99603.59
2023-03-05T16:38:53.413Z,99603.59
2023-03-05T16:41:24.344Z,99596.72
2023-03-05T16:43:56.444Z,99597.53
2023-03-05T16:46:26.982Z,99596.72
2023-03-05T16:48:55.701Z,99603.81
2023-03-05T16:51:25.230Z,99598.75
2023-03-05T16:53:55.599Z,99588.22
2023-03-05T16:56:24.805Z,99598.19
2023-03-05T16:58:56.844Z,99589.44
2023-03-05T17:01:27.548Z,99588.06
2023-03-05T17:03:58.752Z,99580.97
2023-03-05T17:06:30.496Z,99591.50
2023-03-05T17:08:59.309Z,99585.22
2023-03-05T17:11:28.068Z,99586.25
2023-03-05T17:13:57.958Z,99581.78
2023-03-05T17:17:01.421Z,99584.66
2023-03-05T17:19:30.227Z,99583.00
2023-03-05T17:21:58.769Z,99581.63
2023-03-05T17:24:27.228Z,99585.06
2023-03-05T17:26:55.576Z,99587.47
2023-03-05T17:29:25.496Z,99595.59
2023-03-05T17:32:01.770Z,99588.69
2023-03-05T17:34:36.255Z,99597.44
2023-03-05T17:37:09.389Z,99595.78
2023-03-05T17:39:39.991Z,99581.03
2023-03-05T17:42:08.487Z,99589.94
2023-03-05T17:44:38.419Z,99583.06
2023-03-05T17:47:07.106Z,99580.88
2023-03-05T17:49:35.970Z,99582.66
2023-03-05T17:52:04.408Z,99591.97
2023-03-05T17:54:33.145Z,99583.94
2023-03-05T17:57:01.850Z,99592.41
2023-03-05T17:59:30.292Z,99592.41
2023-03-05T18:02:03.436Z,99592.63
2023-03-05T18:04:33.950Z,99585.75
2023-03-05T18:07:02.732Z,99582.75
2023-03-05T18:09:31.388Z,99585.16
2023-03-05T18:11:59.978Z,99582.75
2023-03-05T18:14:28.569Z,99588.00
2023-03-05T18:16:59.069Z,99586.38
2023-03-05T18:19:28.984Z,99577.91
2023-03-05T18:21:57.409Z,99573.06
2023-03-05T18:24:26.092Z,99568.41
2023-03-05T18:26:54.609Z,99571.47
2023-03-05T18:29:23.087Z,99570.44
2023-03-05T18:31:51.648Z,99560.94
2023-03-05T18:34:21.110Z,99561.34
2023-03-05T18:36:51.090Z,99551.88
2023-03-05T18:39:21.630Z,99555.28
2023-03-05T18:41:50.187Z,99548.41
2023-03-05T18:44:22.099Z,99548.41
2023-03-05T18:46:50.549Z,99541.53
2023-03-05T18:49:19.708Z,99533.28
2023-03-05T18:51:48.697Z,99537.72
2023-03-05T18:54:18.724Z,99530.63
2023-03-05T18:56:47.197Z,99541.16
2023-03-05T18:59:15.788Z,99522.16
2023-03-05T19:01:44.662Z,99534.28
2023-03-05T19:04:13.406Z,99536.31
2023-03-05T19:06:41.944Z,99533.69
2023-03-05T19:09:19.446Z,99533.06
2023-03-05T19:11:51.520Z,99520.94
2023-03-05T19:14:20.043Z,99525.63
2023-03-05T19:16:48.769Z,99526.63
2023-03-05T19:19:20.565Z,99524.00
2023-03-05T19:21:53.124Z,99530.88
2023-03-05T19:24:22.760Z,99528.25
2023-03-05T19:26:55.345Z,99521.38
2023-03-05T19:29:30.260Z,99525.00
2023-03-05T19:31:58.892Z,99524.00
2023-03-05T19:34:27.433Z,99515.50
2023-03-05T19:36:56.062Z,99506.81
2023-03-05T19:39:24.898Z,99518.56
2023-03-05T19:41:54.830Z,99517.34
2023-03-05T19:44:23.553Z,99513.31
2023-03-05T19:46:52.239Z,99509.66
2023-03-05T19:49:21.342Z,99513.91
2023-03-05T19:51:50.862Z,99514.72
2023-03-05T19:54:21.810Z,99509.66
2023-03-05T19:56:52.900Z,99511.47
2023-03-05T19:59:33.990Z,99505.63
2023-03-05T20:02:31.436Z,99509.50
2023-03-05T20:05:35.263Z,99503.44
2023-03-05T20:08:42.242Z,99499.63
2023-03-05T20:11:25.839Z,99495.38
2023-03-05T20:14:38.374Z,99492.97
2023-03-05T20:17:23.459Z,99485.88
2023-03-05T20:20:10.489Z,99482.44
2023-03-05T20:23:02.122Z,99484.28
2023-03-05T20:25:33.710Z,99481.03
2023-03-05T20:28:02.050Z,99477.59
2023-03-05T20:30:32.819Z,99487.31
2023-03-05T20:33:04.192Z,99478.63
2023-03-05T20:35:35.360Z,99480.66
2023-03-05T20:38:20.925Z,99478.25
2023-03-05T20:40:50.162Z,99469.94
2023-03-05T20:43:19.393Z,99481.47
2023-03-05T20:45:51.078Z,99489.38
2023-03-05T20:48:25.544Z,99475.38
2023-03-05T20:50:54.497Z,99468.53
2023-03-05T20:53:23.742Z,99472.75
2023-03-05T20:55:52.836Z,99468.75
2023-03-05T20:58:21.230Z,99464.31
2023-03-05T21:00:49.883Z,99469.56
2023-03-05T21:03:18.279Z,99459.47
2023-03-05T21:05:48.220Z,99463.50
2023-03-05T21:08:16.510Z,99456.59
2023-03-05T21:10:44.900Z,99454.81
2023-03-05T21:13:13.233Z,99453.19
2023-03-05T21:15:42.813Z,99447.91
2023-03-05T21:18:11.220Z,99440.25
2023-03-05T21:20:41.012Z,99443.69
2023-03-05T21:23:10.855Z,99438.44
2023-03-05T21:25:39.301Z,99437.63
2023-03-05T21:28:10.049Z,99426.50
2023-03-05T21:30:42.110Z,99437.84
2023-03-05T21:33:14.211Z,99435.19
2023-03-05T21:35:43.212Z,99431.78
2023-03-05T21:38:14.129Z,99424.91
2023-03-05T21:40:45.678Z,99421.69
2023-03-05T21:43:15.726Z,99424.13
2023-03-05T21:45:45.017Z,99417.25
2023-03-05T21:48:13.425Z,99416.44
2023-03-05T21:50:43.576Z,99413.00
2023-03-05T21:53:14.751Z,99417.25
2023-03-05T21:55:47.927Z,99415.63
2023-03-05T21:58:16.241Z,99403.50
2023-03-05T22:00:44.665Z,99398.25
2023-03-05T22:03:13.060Z,99396.44
2023-03-05T22:05:44.152Z,99394.81
2023-03-05T22:08:13.921Z,99398.47
2023-03-05T22:10:43.146Z,99389.75
2023-03-05T22:13:17.621Z,99384.50
2023-03-05T22:15:49.357Z,99380.50
2023-03-05T22:18:19.801Z,99380.28
2023-03-05T22:20:49.270Z,99364.72
2023-03-05T22:23:22.180Z,99360.50
2023-03-05T22:25:57.476Z,99364.13
2023-03-05T22:28:25.931Z,99359.09
2023-03-05T22:30:54.441Z,99353.03
2023-03-05T22:33:23.364Z,99353.03
2023-03-05T22:35:51.934Z,99353.25
2023-03-05T22:38:22.216Z,99336.09
2023-03-05T22:40:51.713Z,99329.03
2023-03-05T22:43:21.392Z,99328.22
2023-03-05T22:45:49.925Z,99323.97
2023-03-05T22:48:18.245Z,99323.16
2023-03-05T22:50:46.572Z,99338.94
2023-03-05T22:53:14.886Z,99324.75
2023-03-05T22:55:44.664Z,99326.00
2023-03-05T22:58:13.031Z,99325.22
2023-03-05T23:00:42.355Z,99326.22
2023-03-05T23:03:10.704Z,99318.31
2023-03-05T23:05:40.599Z,99295.72
2023-03-05T23:08:09.482Z,99310.88
2023-03-05T23:10:38.321Z,99303.81
2023-03-05T23:13:08.237Z,99294.31
2023-03-05T23:15:39.000Z,99292.72
2023-03-05T23:18:07.865Z,99286.06
2023-03-05T23:20:38.227Z,99291.91
2023-03-05T23:23:06.654Z,99287.69
2023-03-05T23:25:36.518Z,99284.22
2023-03-05T23:28:05.587Z,99286.84
2023-03-05T23:30:39.454Z,99279.19
2023-03-05T23:33:13.257Z,99280.00
2023-03-05T23:35:43.548Z,99282.63
2023-03-05T23:38:14.965Z,99273.56
2023-03-05T23:40:45.955Z,99280.22
2023-03-05T23:43:15.997Z,99274.16
2023-03-05T23:45:48.805Z,99273.34
2023-03-05T23:48:18.796Z,99267.28
2023-03-05T23:50:49.259Z,99263.84
2023-03-05T23:53:20.697Z,99269.13
2023-03-05T23:55:49.618Z,99263.84
2023-03-05T23:58:20.328Z,99270.72
